Terminal Aerodrome Forecast
Issued by NWS Sioux Falls, SD

Home | Current Version | Previous Version | Text Only | Print | Product List | Glossary On
Versions: 1 2 3 4 5 6 7 8 9 10 11 12 13 14 15 16 17 18 19 20 21 22 23 24 25 26
000
FTUS43 KFSD 230547
TAFSUX
TAF
KSUX 230547Z 2306/2406 16008KT P6SM BKN080
     FM231100 15008KT P6SM OVC070
      TEMPO 2311/2313 -SHRA
     FM231300 15012KT P6SM -SHRA OVC050
     FM231600 16015G21KT P6SM -SHRA OVC060
     FM232000 16015G21KT P6SM BKN040
     FM240000 15014KT P6SM BKN050=

USA.gov is the U.S. government's official web portal to all federal, state and local government web resources and services.